Time;durP1;ratioP1;P1;durP2;ratioP2;P2;SDS_P1;SDS_P2;PMS_P1;PMS_P2;Temp;Humidity;BMP_temperature;BMP_pressure;BME280_temperature;BME280_humidity;BME280_pressure;Samples;Min_cycle;Max_cycle;Signal;HPM_P1;HPM_P2
2022/11/29 00:01:52;;;;;;;10.63;8.88;;;;;;;1.76;100.00;93226.75;5092021;28;20137;-70
2022/11/29 00:04:19;;;;;;;12.02;9.50;;;;;;;1.39;100.00;93226.94;5091813;28;20488;-70
2022/11/29 00:06:45;;;;;;;13.10;9.55;;;;;;;1.53;100.00;93228.09;5092164;28;20125;-70
2022/11/29 00:09:13;;;;;;;11.85;10.00;;;;;;;1.23;100.00;93217.56;5091401;28;20056;-70
2022/11/29 00:14:27;;;;;;;13.35;9.57;;;;;;;1.08;100.00;93224.94;5091062;28;20593;-70
2022/11/29 00:16:58;;;;;;;12.55;9.35;;;;;;;1.00;100.00;93228.22;5091777;28;20044;-70
2022/11/29 00:19:25;;;;;;;12.90;9.43;;;;;;;0.88;100.00;93227.66;5091552;28;20492;-70
2022/11/29 00:21:51;;;;;;;13.90;9.80;;;;;;;0.78;100.00;93220.19;5091464;28;20052;-70
2022/11/29 00:24:18;;;;;;;23.52;14.93;;;;;;;0.77;100.00;93226.19;5089252;28;20044;-70
2022/11/29 00:26:45;;;;;;;15.65;11.93;;;;;;;0.93;100.00;93217.91;5091250;28;20044;-70
2022/11/29 00:29:12;;;;;;;15.45;11.43;;;;;;;1.04;100.00;93221.91;5091460;28;20051;-70
2022/11/29 00:31:40;;;;;;;23.90;15.70;;;;;;;1.11;100.00;93224.63;5091661;28;20083;-70
2022/11/29 00:34:10;;;;;;;19.17;14.35;;;;;;;1.17;100.00;93228.28;5091641;28;20055;-70
2022/11/29 00:36:37;;;;;;;22.92;16.65;;;;;;;1.27;100.00;93230.69;5091478;28;20044;-70
2022/11/29 00:39:05;;;;;;;21.27;15.90;;;;;;;1.26;100.00;93224.84;5091062;28;20492;-72
2022/11/29 00:41:32;;;;;;;20.15;15.80;;;;;;;1.26;100.00;93224.84;5091297;28;20101;-71
2022/11/29 00:43:59;;;;;;;21.00;15.55;;;;;;;1.28;100.00;93234.81;5089594;28;20509;-71
2022/11/29 00:46:26;;;;;;;20.92;15.00;;;;;;;1.25;100.00;93219.94;5084329;28;20044;-71
2022/11/29 00:48:55;;;;;;;22.05;15.57;;;;;;;1.33;100.00;93230.88;5087453;28;20044;-71
2022/11/29 00:51:23;;;;;;;26.30;19.45;;;;;;;1.32;100.00;93233.56;5087565;28;20040;-71
2022/11/29 00:53:50;;;;;;;23.90;17.17;;;;;;;1.35;100.00;93232.47;5074767;28;20121;-71
2022/11/29 00:56:17;;;;;;;19.65;16.02;;;;;;;1.38;100.00;93237.25;5091058;28;20124;-71
2022/11/29 00:58:44;;;;;;;20.63;15.85;;;;;;;1.33;100.00;93228.34;5090580;28;20291;-71
2022/11/29 01:01:11;;;;;;;20.70;15.27;;;;;;;1.38;100.00;93224.59;5091087;28;20442;-72
2022/11/29 01:03:38;;;;;;;22.45;16.80;;;;;;;1.37;100.00;93228.84;5090179;28;20040;-72
2022/11/29 01:06:07;;;;;;;21.73;15.70;;;;;;;1.39;100.00;93223.63;5090749;28;20056;-71
2022/11/29 01:08:35;;;;;;;17.92;15.13;;;;;;;1.39;100.00;93223.63;5090411;28;20048;-71
2022/11/29 01:11:04;;;;;;;21.90;16.98;;;;;;;1.37;100.00;93220.44;5090947;28;20446;-71
2022/11/29 01:13:31;;;;;;;21.90;16.50;;;;;;;1.38;100.00;93220.28;5090711;28;20105;-71
2022/11/29 01:15:58;;;;;;;28.83;20.83;;;;;;;1.38;100.00;93214.47;5089844;28;20044;-71
2022/11/29 01:18:25;;;;;;;31.73;21.85;;;;;;;1.38;100.00;93209.41;5090668;28;20048;-71
2022/11/29 01:20:56;;;;;;;32.15;23.35;;;;;;;1.44;100.00;93216.38;5090375;28;20449;-72
2022/11/29 01:23:23;;;;;;;28.23;20.52;;;;;;;1.47;100.00;93211.00;5090657;28;20052;-72
2022/11/29 01:25:58;;;;;;;30.48;21.42;;;;;;;1.47;100.00;93208.47;5090234;28;20651;-71
2022/11/29 01:28:25;;;;;;;29.58;21.60;;;;;;;1.50;100.00;93202.31;5090515;28;20121;-71
2022/11/29 01:30:52;;;;;;;26.60;19.67;;;;;;;1.52;100.00;93205.50;5090345;28;20052;-71
2022/11/29 01:33:19;;;;;;;31.40;21.40;;;;;;;1.53;100.00;93197.72;5090440;28;20071;-70
2022/11/29 01:35:50;;;;;;;27.00;20.15;;;;;;;1.57;100.00;93196.47;5090113;28;20487;-70
2022/11/29 01:38:17;;;;;;;27.55;20.05;;;;;;;1.61;100.00;93191.88;5090312;28;20132;-71
2022/11/29 01:40:44;;;;;;;30.75;21.00;;;;;;;1.64;100.00;93200.91;5089889;28;20052;-70
2022/11/29 01:43:16;;;;;;;24.45;18.50;;;;;;;1.69;100.00;93198.72;5090352;28;20419;-70
2022/11/29 01:45:43;;;;;;;25.90;18.45;;;;;;;1.66;100.00;93188.91;5090294;28;20135;-71
2022/11/29 01:48:12;;;;;;;23.20;17.45;;;;;;;1.76;100.00;93186.22;5090093;28;20097;-71
2022/11/29 01:50:39;;;;;;;23.52;17.60;;;;;;;1.83;100.00;93187.19;5090212;28;20044;-71
2022/11/29 01:53:07;;;;;;;11.90;9.68;;;;;;;1.45;100.00;93192.66;5090072;28;20036;-71
2022/11/29 01:55:38;;;;;;;9.27;7.35;;;;;;;1.24;100.00;93191.31;5089296;28;20110;-70
2022/11/29 01:58:06;;;;;;;10.73;8.23;;;;;;;1.32;100.00;93191.34;5090098;28;20083;-70
2022/11/29 02:00:35;;;;;;;10.10;7.78;;;;;;;1.26;100.00;93196.22;5089911;28;20465;-70
2022/11/29 02:03:09;;;;;;;9.60;7.50;;;;;;;1.06;100.00;93182.06;5090058;28;20040;-70
2022/11/29 02:05:38;;;;;;;10.05;7.45;;;;;;;1.00;100.00;93192.78;5089623;28;20048;-70
2022/11/29 02:08:08;;;;;;;9.43;8.18;;;;;;;0.81;100.00;93191.28;5089301;28;20048;-70
2022/11/29 02:10:47;;;;;;;21.23;14.88;;;;;;;0.72;100.00;93185.38;5090260;28;20130;-70
2022/11/29 02:13:23;;;;;;;18.65;12.75;;;;;;;0.52;100.00;93167.13;5089902;28;20056;-71
2022/11/29 02:15:58;;;;;;;11.68;8.32;;;;;;;0.63;100.00;93173.63;5089576;28;20047;-70
2022/11/29 02:18:36;;;;;;;12.25;7.72;;;;;;;0.69;100.00;93185.69;5089873;28;20044;-70
2022/11/29 02:21:23;;;;;;;8.60;7.55;;;;;;;0.75;100.00;93186.81;5089598;28;20084;-70
2022/11/29 02:24:31;;;;;;;9.98;7.47;;;;;;;0.83;100.00;93181.03;5089884;28;20109;-71
2022/11/29 02:27:30;;;;;;;10.48;7.32;;;;;;;0.76;100.00;93180.81;5060042;28;20105;-71
2022/11/29 02:30:16;;;;;;;10.98;9.07;;;;;;;0.72;100.00;93182.88;5089745;28;20466;-70
2022/11/29 02:33:30;;;;;;;15.93;13.20;;;;;;;0.73;100.00;93186.97;5089898;28;20061;-70
2022/11/29 02:36:11;;;;;;;17.63;13.30;;;;;;;0.66;100.00;93191.03;5042005;28;20048;-70
2022/11/29 02:38:59;;;;;;;17.13;12.88;;;;;;;0.42;100.00;93192.50;5075953;28;20101;-70
2022/11/29 02:41:41;;;;;;;18.27;14.27;;;;;;;0.46;100.00;93193.75;5089668;28;20052;-70
2022/11/29 02:44:39;;;;;;;19.65;14.73;;;;;;;0.50;100.00;93195.06;5089436;28;20083;-70
2022/11/29 02:47:15;;;;;;;20.58;15.43;;;;;;;0.53;100.00;93204.88;5082817;28;20044;-71
2022/11/29 02:49:49;;;;;;;;;;;;;;;0.68;100.00;93201.78;5090071;28;20051;-71
2022/11/29 02:52:25;;;;;;;21.88;15.52;;;;;;;0.73;100.00;93197.09;5089386;28;20383;-71
2022/11/29 02:54:58;;;;;;;19.90;16.20;;;;;;;0.75;100.00;93200.25;5089318;28;20056;-71
2022/11/29 02:57:35;;;;;;;19.13;14.93;;;;;;;0.79;100.00;93204.06;5089436;28;20136;-71
2022/11/29 03:00:06;;;;;;;19.33;14.80;;;;;;;0.77;100.00;93200.09;5089407;28;20040;-71
2022/11/29 03:02:49;;;;;;;15.15;12.27;;;;;;;0.83;100.00;93198.72;5075065;28;20055;-71
2022/11/29 03:05:24;;;;;;;16.13;13.07;;;;;;;0.82;100.00;93194.63;5089390;28;20052;-71
2022/11/29 03:07:58;;;;;;;21.30;17.00;;;;;;;0.94;100.00;93208.59;5090447;28;20485;-71
2022/11/29 03:10:33;;;;;;;23.25;16.90;;;;;;;1.00;100.00;93213.03;5092954;28;20104;-71
2022/11/29 03:13:05;;;;;;;15.65;12.75;;;;;;;1.09;100.00;93210.53;5093103;28;20074;-71
2022/11/29 03:15:38;;;;;;;21.23;16.60;;;;;;;1.03;100.00;93205.13;5093040;28;20124;-71
2022/11/29 03:18:27;;;;;;;22.00;16.38;;;;;;;1.07;100.00;93223.34;5093119;28;20093;-71
2022/11/29 03:21:04;;;;;;;18.30;14.77;;;;;;;1.02;100.00;93210.34;5092583;28;20051;-71
2022/11/29 03:23:36;;;;;;;22.85;18.35;;;;;;;1.11;100.00;93218.78;5092956;28;20095;-71
2022/11/29 03:26:08;;;;;;;23.20;15.85;;;;;;;1.05;100.00;93223.50;5092919;28;20044;-71
2022/11/29 03:28:39;;;;;;;17.70;13.80;;;;;;;1.13;100.00;93214.34;5092437;28;20101;-71
2022/11/29 03:31:13;;;;;;;18.20;14.63;;;;;;;1.24;100.00;93218.38;5092609;28;20048;-71
2022/11/29 03:33:49;;;;;;;15.50;13.00;;;;;;;1.30;100.00;93213.47;5092364;28;20123;-71
2022/11/29 03:36:25;;;;;;;15.98;11.88;;;;;;;1.28;100.00;93212.03;5092421;28;20125;-71
2022/11/29 03:38:58;;;;;;;20.85;17.02;;;;;;;1.30;100.00;93223.59;5092601;28;20070;-71
2022/11/29 03:41:30;;;;;;;20.75;17.13;;;;;;;1.30;100.00;93223.59;5092622;28;20098;-71
2022/11/29 03:44:03;;;;;;;22.85;18.20;;;;;;;1.35;100.00;93219.81;5092703;28;20052;-71
2022/11/29 03:46:36;;;;;;;17.38;14.45;;;;;;;1.42;100.00;93224.13;5092534;28;20047;-71
2022/11/29 03:49:07;;;;;;;15.35;13.45;;;;;;;1.46;100.00;93225.41;5092328;28;20080;-71
2022/11/29 03:51:49;;;;;;;18.77;13.98;;;;;;;1.52;100.00;93221.44;5092262;28;20133;-71
2022/11/29 03:54:22;;;;;;;21.05;15.65;;;;;;;1.49;100.00;93223.50;5092397;28;20483;-71
2022/11/29 03:56:49;;;;;;;20.40;16.13;;;;;;;1.35;100.00;93218.09;5092375;28;20076;-71
2022/11/29 03:59:36;;;;;;;21.05;15.02;;;;;;;1.33;100.00;93215.72;5092104;28;20484;-71
2022/11/29 04:02:36;;;;;;;20.20;15.27;;;;;;;1.43;100.00;93222.38;5092108;28;20052;-71
2022/11/29 04:05:36;;;;;;;21.83;14.43;;;;;;;1.42;100.00;93220.78;5092052;28;20055;-71
2022/11/29 04:08:25;;;;;;;18.75;13.95;;;;;;;1.48;100.00;93219.38;5091951;28;20048;-71
2022/11/29 04:11:18;;;;;;;16.83;12.80;;;;;;;1.32;100.00;93220.91;5091620;28;20556;-72
2022/11/29 04:14:22;;;;;;;17.58;13.40;;;;;;;1.43;100.00;93217.31;5091994;28;20106;-71
2022/11/29 04:17:14;;;;;;;22.77;14.60;;;;;;;1.49;100.00;93216.72;5091773;28;20044;-71
2022/11/29 04:20:22;;;;;;;22.98;15.60;;;;;;;1.56;100.00;93221.94;5091430;28;20044;-71
2022/11/29 04:23:17;;;;;;;25.88;17.75;;;;;;;1.53;100.00;93220.50;5091577;28;20484;-70
2022/11/29 04:26:03;;;;;;;30.75;18.30;;;;;;;1.60;100.00;93233.34;5056813;28;20154;-70
2022/11/29 04:28:51;;;;;;;23.08;15.05;;;;;;;1.65;100.00;93236.22;5091583;28;20131;-71
2022/11/29 04:31:28;;;;;;;24.13;13.18;;;;;;;1.69;100.00;93234.97;5073244;28;20480;-71
2022/11/29 04:34:20;;;;;;;14.73;10.98;;;;;;;1.60;100.00;93224.03;5089895;28;20075;-70
2022/11/29 04:37:08;;;;;;;10.27;8.95;;;;;;;1.65;100.00;93225.28;5091019;28;20040;-70
2022/11/29 04:39:56;;;;;;;15.18;11.40;;;;;;;1.51;100.00;93226.66;5091228;28;20048;-70
2022/11/29 04:42:49;;;;;;;14.45;10.45;;;;;;;1.51;100.00;93214.81;5091054;28;20056;-70
2022/11/29 04:46:03;;;;;;;17.13;12.30;;;;;;;1.42;100.00;93216.53;5091113;28;20127;-70
2022/11/29 04:48:55;;;;;;;22.67;16.27;;;;;;;1.25;100.00;93195.41;5091423;28;20044;-70
2022/11/29 04:51:41;;;;;;;17.05;13.02;;;;;;;1.36;100.00;93211.28;5090670;28;20147;-70
2022/11/29 04:54:17;;;;;;;15.88;10.98;;;;;;;1.36;100.00;93206.22;5091257;28;20564;-70
2022/11/29 04:56:47;;;;;;;13.35;9.75;;;;;;;1.41;100.00;93207.34;5091139;28;20079;-71
2022/11/29 04:59:21;;;;;;;16.05;10.88;;;;;;;1.36;100.00;93222.19;5090338;28;20087;-71
2022/11/29 05:02:02;;;;;;;15.73;11.43;;;;;;;1.24;100.00;93215.84;5091106;28;20499;-71
2022/11/29 05:04:36;;;;;;;18.65;13.65;;;;;;;1.05;100.00;93212.56;5091121;28;20051;-70
2022/11/29 05:07:08;;;;;;;20.67;13.57;;;;;;;0.93;100.00;93209.53;5090766;28;20131;-70
2022/11/29 05:09:55;;;;;;;35.78;18.77;;;;;;;1.00;100.00;93219.81;5090557;28;20164;-70
2022/11/29 05:12:32;;;;;;;29.90;15.35;;;;;;;0.83;100.00;93213.91;5090918;28;20051;-70
2022/11/29 05:15:16;;;;;;;14.27;9.50;;;;;;;0.73;100.00;93212.25;5090858;28;20505;-70
2022/11/29 05:17:56;;;;;;;9.98;7.40;;;;;;;0.70;100.00;93209.22;5090449;28;20102;-71
2022/11/29 05:20:34;;;;;;;9.88;7.53;;;;;;;0.77;100.00;93215.28;5090541;28;20127;-70
2022/11/29 05:23:17;;;;;;;11.75;8.05;;;;;;;0.88;100.00;93215.03;5090832;28;20133;-70
2022/11/29 05:25:54;;;;;;;14.20;9.35;;;;;;;0.96;100.00;93206.69;5090636;28;20087;-70
2022/11/29 05:28:28;;;;;;;16.10;10.38;;;;;;;1.15;100.00;93217.53;5090437;28;20044;-70
2022/11/29 05:31:12;;;;;;;17.05;10.75;;;;;;;1.15;100.00;93198.06;5089541;28;20449;-70
2022/11/29 05:34:05;;;;;;;15.57;10.67;;;;;;;1.41;100.00;93212.41;5090429;28;20052;-70
2022/11/29 05:36:40;;;;;;;24.33;17.33;;;;;;;1.55;100.00;93222.88;5090046;28;20101;-70
2022/11/29 05:39:33;;;;;;;28.38;20.23;;;;;;;1.64;100.00;93221.16;5090507;28;20044;-70
2022/11/29 05:42:16;;;;;;;21.00;14.85;;;;;;;1.71;100.00;93222.94;5087173;28;20048;-70
2022/11/29 05:44:47;;;;;;;14.80;10.93;;;;;;;1.79;100.00;93223.88;5090084;28;20048;-70
2022/11/29 05:47:21;;;;;;;15.82;12.35;;;;;;;1.86;100.00;93223.13;5089663;28;20072;-70
2022/11/29 05:50:00;;;;;;;15.25;13.63;;;;;;;1.73;100.00;93227.84;5089961;28;20080;-70
2022/11/29 05:52:39;;;;;;;9.05;7.50;;;;;;;1.55;100.00;93222.88;5090259;28;20052;-70
2022/11/29 05:55:22;;;;;;;12.57;7.65;;;;;;;1.37;100.00;93206.06;5089525;28;20093;-70
2022/11/29 05:57:56;;;;;;;12.77;10.85;;;;;;;1.44;100.00;93218.91;5089960;28;20500;-70
2022/11/29 06:00:24;;;;;;;11.43;8.00;;;;;;;1.30;100.00;93216.00;5089766;28;20168;-70
2022/11/29 06:02:58;;;;;;;8.95;7.65;;;;;;;1.42;100.00;93215.72;5089717;28;20500;-70
2022/11/29 06:05:35;;;;;;;12.35;9.15;;;;;;;1.33;100.00;93215.72;5089748;28;20079;-70
2022/11/29 06:08:06;;;;;;;11.88;9.07;;;;;;;1.48;100.00;93217.63;5089335;28;20059;-70
2022/11/29 06:10:38;;;;;;;12.25;8.93;;;;;;;1.61;100.00;93219.72;5089787;28;20058;-70
2022/11/29 06:13:17;;;;;;;13.30;11.10;;;;;;;1.71;100.00;93227.22;5090027;28;20040;-70
2022/11/29 06:16:11;;;;;;;11.65;8.82;;;;;;;1.66;100.00;93227.66;5089834;28;20048;-70
2022/11/29 06:18:54;;;;;;;12.38;9.98;;;;;;;1.73;100.00;93222.78;5089559;28;20058;-70
2022/11/29 06:21:33;;;;;;;10.15;8.75;;;;;;;1.66;100.00;93227.66;5089931;28;20077;-70
2022/11/29 06:24:29;;;;;;;7.97;7.18;;;;;;;1.53;100.00;93225.56;5089767;28;20052;-71
2022/11/29 06:27:27;;;;;;;9.25;6.85;;;;;;;1.50;100.00;93220.03;5090085;28;20377;-71
2022/11/29 06:30:02;;;;;;;8.55;6.90;;;;;;;1.34;100.00;93216.47;5089319;28;20533;-70
2022/11/29 06:32:39;;;;;;;8.60;7.20;;;;;;;1.26;100.00;93227.38;5089752;28;20121;-71
2022/11/29 06:35:18;;;;;;;13.63;9.82;;;;;;;1.24;100.00;93224.19;5090082;28;20047;-71
2022/11/29 06:37:50;;;;;;;11.50;9.98;;;;;;;1.32;100.00;93234.38;5089349;28;20106;-71
2022/11/29 06:40:17;;;;;;;9.35;7.38;;;;;;;1.28;100.00;93225.50;5086649;28;20076;-71
2022/11/29 06:42:44;;;;;;;9.52;7.70;;;;;;;1.38;100.00;93232.19;5090709;28;20083;-71
2022/11/29 06:45:13;;;;;;;9.20;7.95;;;;;;;1.34;100.00;93236.72;5091983;28;20052;-71
2022/11/29 06:47:43;;;;;;;10.05;7.85;;;;;;;1.37;100.00;93233.91;5093407;28;20054;-71
2022/11/29 06:50:26;;;;;;;11.15;8.80;;;;;;;1.45;100.00;93238.22;5093604;28;20048;-71
2022/11/29 06:53:02;;;;;;;9.95;7.70;;;;;;;1.57;100.00;93233.66;5093394;28;20149;-71
2022/11/29 06:55:39;;;;;;;9.18;7.47;;;;;;;1.53;100.00;93234.91;5089298;28;20102;-71
2022/11/29 06:58:14;;;;;;;9.82;7.63;;;;;;;1.67;100.00;93244.44;5086422;28;20044;-70
2022/11/29 07:00:47;;;;;;;11.13;9.73;;;;;;;1.79;100.00;93234.00;5086460;28;20037;-72
2022/11/29 07:03:40;;;;;;;14.23;10.55;;;;;;;1.81;100.00;93237.97;5073025;28;20118;-71
2022/11/29 07:06:15;;;;;;;14.98;11.18;;;;;;;1.91;100.00;93244.66;5072886;28;20443;-71
2022/11/29 07:08:44;;;;;;;15.13;10.80;;;;;;;1.99;100.00;93225.19;5084139;28;20472;-71
2022/11/29 07:11:13;;;;;;;13.20;9.38;;;;;;;2.04;100.00;93226.47;5092715;28;20087;-71
2022/11/29 07:13:40;;;;;;;14.07;9.68;;;;;;;2.17;100.00;93243.75;5092877;28;20108;-72
2022/11/29 07:16:16;;;;;;;16.20;9.88;;;;;;;2.25;100.00;93236.16;5092455;28;20044;-71
2022/11/29 07:18:49;;;;;;;14.45;9.73;;;;;;;2.20;100.00;93239.16;5092809;28;20044;-71
2022/11/29 07:21:24;;;;;;;11.98;8.40;;;;;;;1.98;100.00;93243.06;5092924;28;20140;-71
2022/11/29 07:24:03;;;;;;;11.65;9.40;;;;;;;1.93;100.00;93235.97;5092644;28;20091;-71
2022/11/29 07:26:39;;;;;;;12.23;8.95;;;;;;;1.77;100.00;93238.44;5092898;28;20083;-72
2022/11/29 07:29:22;;;;;;;14.98;10.73;;;;;;;1.85;100.00;93229.13;5092997;28;20048;-71
2022/11/29 07:31:56;;;;;;;13.15;9.57;;;;;;;1.98;100.00;93238.81;5092820;28;20070;-71
2022/11/29 07:34:31;;;;;;;13.57;10.10;;;;;;;1.95;100.00;93235.81;5092191;28;20100;-71
2022/11/29 07:37:05;;;;;;;19.35;13.15;;;;;;;2.03;100.00;93235.03;5091896;28;20044;-71
2022/11/29 07:39:43;;;;;;;19.17;14.07;;;;;;;2.19;100.00;93237.59;5092225;28;20110;-71
2022/11/29 07:42:19;;;;;;;22.50;14.75;;;;;;;2.32;100.00;93238.84;5091979;28;20109;-71
2022/11/29 07:44:56;;;;;;;20.17;12.48;;;;;;;2.39;100.00;93238.06;5092314;28;20044;-71
2022/11/29 07:47:22;;;;;;;17.02;12.15;;;;;;;2.16;100.00;93234.56;5092488;28;20105;-71
2022/11/29 07:49:49;;;;;;;12.52;10.00;;;;;;;1.98;100.00;93228.69;5092589;28;20040;-71
2022/11/29 07:52:17;;;;;;;15.90;10.85;;;;;;;2.23;100.00;93240.59;5092241;28;20075;-71
2022/11/29 07:54:45;;;;;;;14.95;10.18;;;;;;;2.27;100.00;93241.88;5091082;28;20052;-71
2022/11/29 07:57:12;;;;;;;16.17;10.48;;;;;;;2.29;100.00;93241.69;5091805;28;20092;-71
2022/11/29 07:59:38;;;;;;;15.63;11.25;;;;;;;2.37;100.00;93241.72;5091487;28;20133;-71
2022/11/29 08:02:05;;;;;;;19.38;13.05;;;;;;;2.51;100.00;93237.75;5088188;28;20137;-71
2022/11/29 08:04:32;;;;;;;23.05;12.50;;;;;;;2.57;100.00;93243.91;5092122;28;20067;-71
2022/11/29 08:06:59;;;;;;;17.00;12.75;;;;;;;2.25;100.00;93244.56;5091776;28;20083;-71
2022/11/29 08:09:26;;;;;;;15.65;10.45;;;;;;;2.37;100.00;93257.69;5091742;28;20535;-71
2022/11/29 08:11:54;;;;;;;17.27;10.10;;;;;;;2.42;100.00;93254.69;5091922;28;20098;-71
2022/11/29 08:14:21;;;;;;;14.73;9.93;;;;;;;2.31;100.00;93258.31;5091869;28;20079;-71
2022/11/29 08:16:48;;;;;;;16.27;9.50;;;;;;;2.27;100.00;93260.38;5091746;28;20052;-71
2022/11/29 08:19:14;;;;;;;15.30;10.45;;;;;;;2.42;100.00;93256.44;5091380;28;20519;-71
2022/11/29 08:21:45;;;;;;;12.82;9.98;;;;;;;2.53;100.00;93263.72;5091970;28;20138;-71
2022/11/29 08:24:12;;;;;;;13.57;9.95;;;;;;;2.63;100.00;93269.44;5091246;28;20055;-71
2022/11/29 08:26:39;;;;;;;15.82;10.20;;;;;;;2.69;100.00;93267.22;5091787;28;20048;-71
2022/11/29 08:29:07;;;;;;;19.63;9.60;;;;;;;2.83;100.00;93271.66;5091608;28;20048;-71
2022/11/29 08:31:33;;;;;;;12.40;8.65;;;;;;;2.97;100.00;93267.66;5090756;28;20044;-71
2022/11/29 08:34:00;;;;;;;14.05;8.43;;;;;;;3.07;100.00;93264.94;5091078;28;20044;-71
2022/11/29 08:36:27;;;;;;;14.02;9.23;;;;;;;3.09;100.00;93269.88;5091574;28;20080;-71
2022/11/29 08:38:54;;;;;;;12.30;9.13;;;;;;;3.19;100.00;93273.00;5091183;28;20109;-71
2022/11/29 08:41:20;;;;;;;14.18;9.23;;;;;;;3.08;100.00;93269.06;5091332;28;20044;-71
2022/11/29 08:43:48;;;;;;;13.35;9.13;;;;;;;3.23;100.00;93276.03;5091184;28;20079;-70
2022/11/29 08:46:16;;;;;;;15.93;11.13;;;;;;;2.97;100.00;93271.94;5090998;28;20573;-71
2022/11/29 08:48:42;;;;;;;17.40;10.43;;;;;;;3.00;100.00;93267.31;5091327;28;20052;-71
2022/11/29 08:51:09;;;;;;;13.85;9.63;;;;;;;3.05;100.00;93264.28;5091397;28;20204;-70
2022/11/29 08:53:41;;;;;;;15.35;9.73;;;;;;;3.21;100.00;93271.88;5091213;28;20059;-71
2022/11/29 08:56:08;;;;;;;15.65;9.57;;;;;;;3.34;100.00;93268.06;5090728;28;20044;-71
2022/11/29 08:58:35;;;;;;;14.68;8.95;;;;;;;3.46;100.00;93268.47;5090404;28;20135;-71
2022/11/29 09:01:02;;;;;;;11.82;8.60;;;;;;;3.17;100.00;93263.03;5088904;28;20091;-71
2022/11/29 09:06:16;;;;;;;12.13;9.15;;;;;;;3.38;100.00;93251.50;5090796;28;20100;-71
2022/11/29 09:08:43;;;;;;;12.25;8.75;;;;;;;3.48;100.00;93253.88;5090322;28;20196;-71
2022/11/29 09:11:12;;;;;;;11.63;8.40;;;;;;;3.54;100.00;93245.59;5089397;28;20044;-68
2022/11/29 09:13:39;;;;;;;12.40;9.15;;;;;;;3.49;100.00;93242.75;5090916;28;20127;-69
2022/11/29 09:16:07;;;;;;;12.70;9.52;;;;;;;3.63;100.00;93236.19;5090978;28;20040;-69
2022/11/29 09:18:37;;;;;;;10.93;8.32;;;;;;;3.49;100.00;93232.59;5090709;28;20446;-70
2022/11/29 09:21:05;;;;;;;9.73;7.70;;;;;;;3.16;100.00;93233.50;5090482;28;20044;-70
2022/11/29 09:23:32;;;;;;;12.07;7.15;;;;;;;3.20;100.00;93237.28;5090577;28;20466;-70
2022/11/29 09:25:59;;;;;;;7.50;5.57;;;;;;;3.04;100.00;93238.13;5090808;28;20083;-70
2022/11/29 09:28:25;;;;;;;9.70;5.85;;;;;;;2.91;100.00;93235.31;5090124;28;20043;-70
2022/11/29 09:30:52;;;;;;;7.43;5.45;;;;;;;2.94;100.00;93235.78;5090113;28;20124;-70
2022/11/29 09:33:19;;;;;;;8.32;5.85;;;;;;;2.84;100.00;93231.84;5090043;28;20080;-70
2022/11/29 09:35:47;;;;;;;9.55;5.97;;;;;;;2.72;100.00;93213.63;5089818;28;20116;-70
2022/11/29 09:38:15;;;;;;;8.30;7.40;;;;;;;2.79;100.00;93200.13;5089829;28;20105;-70
2022/11/29 09:40:48;;;;;;;7.85;6.78;;;;;;;3.09;100.00;93217.34;5089891;28;20450;-70
2022/11/29 09:43:25;;;;;;;9.85;8.23;;;;;;;3.13;100.00;93218.59;5090298;28;20137;-69
2022/11/29 09:45:59;;;;;;;9.23;5.75;;;;;;;2.86;100.00;93205.34;5090204;28;20075;-69
2022/11/29 09:48:50;;;;;;;11.45;9.02;;;;;;;3.11;100.00;93214.66;5090450;28;20195;-69
2022/11/29 09:51:27;;;;;;;10.70;8.60;;;;;;;3.07;100.00;93204.03;5089275;28;20454;-69
2022/11/29 09:54:06;;;;;;;10.13;8.20;;;;;;;2.98;100.00;93202.47;5089543;28;20929;-70
2022/11/29 09:56:38;;;;;;;8.30;7.40;;;;;;;2.88;100.00;93211.03;5090037;28;20048;-70
2022/11/29 09:59:11;;;;;;;10.95;8.32;;;;;;;3.09;100.00;93208.94;5089813;28;20102;-70
2022/11/29 10:01:42;;;;;;;11.25;9.43;;;;;;;3.28;100.00;93202.69;5089843;28;20146;-70
2022/11/29 10:04:13;;;;;;;11.38;8.10;;;;;;;2.97;100.00;93200.88;5090077;28;20048;-69
2022/11/29 10:06:45;;;;;;;10.00;7.50;;;;;;;2.75;100.00;93168.44;5090196;28;20098;-69
2022/11/29 10:09:20;;;;;;;10.75;8.38;;;;;;;2.98;100.00;93193.13;5089346;28;20919;-69
2022/11/29 10:11:59;;;;;;;11.70;9.13;;;;;;;3.13;100.00;93188.16;5088426;28;20054;-69
2022/11/29 10:14:31;;;;;;;22.75;11.63;;;;;;;3.18;100.00;93178.28;5089903;28;20105;-69
2022/11/29 10:17:05;;;;;;;11.43;9.05;;;;;;;3.33;100.00;93175.84;5089211;28;20678;-69
2022/11/29 10:19:35;;;;;;;17.65;12.20;;;;;;;3.05;100.00;93180.53;5089770;28;20051;-70
2022/11/29 10:22:07;;;;;;;13.55;9.88;;;;;;;2.91;100.00;93182.00;5089785;28;20458;-69
2022/11/29 10:24:34;;;;;;;14.38;10.10;;;;;;;2.93;100.00;93182.66;5089369;28;20084;-70
2022/11/29 10:27:02;;;;;;;21.42;15.80;;;;;;;3.10;100.00;93187.69;5089744;28;20113;-71
2022/11/29 10:29:28;;;;;;;18.98;14.23;;;;;;;3.01;100.00;93184.38;5089615;28;20048;-70
2022/11/29 10:31:58;;;;;;;16.20;13.48;;;;;;;2.99;100.00;93182.00;5089629;28;20060;-70
2022/11/29 10:34:26;;;;;;;18.83;13.38;;;;;;;2.97;100.00;93185.66;5089508;28;20103;-70
2022/11/29 10:36:58;;;;;;;15.90;13.10;;;;;;;2.97;100.00;93186.47;5089545;28;20052;-70
2022/11/29 10:39:36;;;;;;;14.13;11.45;;;;;;;3.10;100.00;93185.16;5089506;28;20052;-70
2022/11/29 10:42:05;;;;;;;11.32;8.75;;;;;;;3.35;100.00;93190.91;5089694;28;20052;-70
2022/11/29 10:44:32;;;;;;;16.50;12.95;;;;;;;3.39;100.00;93187.09;5089431;28;20054;-70
2022/11/29 10:47:02;;;;;;;13.82;10.18;;;;;;;3.34;100.00;93195.19;5089685;28;20140;-70
2022/11/29 10:49:35;;;;;;;13.27;9.40;;;;;;;3.42;100.00;93193.59;5089364;28;20044;-70
2022/11/29 10:52:02;;;;;;;11.32;8.68;;;;;;;3.48;100.00;93192.94;5089525;28;20381;-70
2022/11/29 10:54:38;;;;;;;13.55;10.88;;;;;;;3.42;100.00;93196.91;5089172;28;20059;-70
2022/11/29 10:57:12;;;;;;;16.60;11.70;;;;;;;3.28;100.00;93197.63;5089485;28;20051;-70
2022/11/29 10:59:39;;;;;;;20.38;13.95;;;;;;;3.28;100.00;93198.41;5089289;28;20079;-69
2022/11/29 11:02:17;;;;;;;13.82;11.45;;;;;;;3.29;100.00;93207.59;5089285;28;20055;-70
2022/11/29 11:04:46;;;;;;;12.90;11.50;;;;;;;3.11;100.00;93196.88;5089494;28;20075;-70
2022/11/29 11:07:23;;;;;;;17.80;14.38;;;;;;;3.15;100.00;93198.16;5089150;28;20138;-70
2022/11/29 11:09:55;;;;;;;17.73;14.25;;;;;;;3.03;100.00;93197.69;5089083;28;20052;-70
2022/11/29 11:12:26;;;;;;;18.70;14.77;;;;;;;2.91;100.00;93202.31;5089094;28;20159;-70
2022/11/29 11:15:13;;;;;;;19.20;13.48;;;;;;;2.74;100.00;93189.66;5089339;28;20044;-69
2022/11/29 11:17:41;;;;;;;23.15;16.73;;;;;;;2.78;100.00;93207.91;5089416;28;20221;-70
2022/11/29 11:20:20;;;;;;;20.80;14.90;;;;;;;2.77;100.00;93207.13;5088948;28;20052;-70
2022/11/29 11:22:57;;;;;;;20.42;15.75;;;;;;;2.82;100.00;93206.63;5089150;28;20052;-70
2022/11/29 11:25:29;;;;;;;23.13;16.50;;;;;;;2.69;100.00;93207.13;5088599;28;20048;-70
2022/11/29 11:27:57;;;;;;;128.95;88.13;;;;;;;2.62;100.00;93201.91;5088847;28;20127;-70
2022/11/29 11:30:26;;;;;;;27.83;17.00;;;;;;;2.66;100.00;93204.91;5092703;28;20048;-70
2022/11/29 11:33:19;;;;;;;26.30;17.70;;;;;;;2.76;100.00;93207.25;5092653;28;20048;-70
2022/11/29 11:36:01;;;;;;;32.58;19.55;;;;;;;2.85;100.00;93183.47;5091896;28;20327;-70
2022/11/29 11:38:28;;;;;;;21.58;15.80;;;;;;;2.92;100.00;93201.38;5091529;28;20044;-70
2022/11/29 11:41:05;;;;;;;23.58;15.73;;;;;;;2.80;100.00;93206.81;5091208;28;20040;-70
2022/11/29 11:43:34;;;;;;;25.85;16.90;;;;;;;3.00;100.00;93206.44;5090872;28;20588;-70
2022/11/29 11:46:00;;;;;;;22.85;14.48;;;;;;;3.01;100.00;93202.16;5091865;28;20056;-70
2022/11/29 11:48:27;;;;;;;14.40;12.02;;;;;;;3.09;100.00;93202.13;5091443;28;20067;-70
2022/11/29 11:50:57;;;;;;;13.90;11.88;;;;;;;3.20;100.00;93200.97;5092134;28;20129;-70
2022/11/29 11:53:26;;;;;;;31.73;18.27;;;;;;;3.28;100.00;93195.09;5091662;28;20567;-70
2022/11/29 11:55:57;;;;;;;24.73;15.50;;;;;;;3.32;100.00;93194.59;5092323;28;20059;-70
2022/11/29 11:58:28;;;;;;;19.25;13.68;;;;;;;3.27;100.00;93181.59;5087713;28;20044;-70
2022/11/29 12:00:56;;;;;;;16.55;12.80;;;;;;;3.46;100.00;93200.72;5092342;28;20044;-69